Time;durP1;ratioP1;P1;durP2;ratioP2;P2;SDS_P1;SDS_P2;PMS_P1;PMS_P2;Temp;Humidity;BMP_temperature;BMP_pressure;BME280_temperature;BME280_humidity;BME280_pressure;Samples;Min_cycle;Max_cycle;Signal;HPM_P1;HPM_P2
2021/03/10 00:02:06;;;;;;;;;;;5.90;90.10;;;;;;5040589;27;87119;-66
2021/03/10 00:04:31;;;;;;;;;;;5.90;90.20;;;;;;5041316;28;87632;-66
2021/03/10 00:06:57;;;;;;;;;;;5.90;90.20;;;;;;5041131;27;88347;-66
2021/03/10 00:09:23;;;;;;;;;;;5.90;90.20;;;;;;5038166;28;88891;-66
2021/03/10 00:11:48;;;;;;;;;;;5.90;90.20;;;;;;5040826;28;87834;-66
2021/03/10 00:14:13;;;;;;;;;;;5.90;90.20;;;;;;5040117;28;87525;-66
2021/03/10 00:16:39;;;;;;;;;;;5.80;90.20;;;;;;5040513;28;87439;-66
2021/03/10 00:19:05;;;;;;;;;;;5.80;90.20;;;;;;5041498;28;87137;-66
2021/03/10 00:21:30;;;;;;;;;;;5.90;90.20;;;;;;5041449;28;88131;-66
2021/03/10 00:23:56;;;;;;;;;;;5.90;90.20;;;;;;5038450;28;88079;-66
2021/03/10 00:26:21;;;;;;;;;;;5.80;90.20;;;;;;5036387;27;87199;-66
2021/03/10 00:28:47;;;;;;;;;;;5.80;90.20;;;;;;5037675;28;87250;-66
2021/03/10 00:31:12;;;;;;;;;;;5.80;90.30;;;;;;5036333;27;88343;-66
2021/03/10 00:33:38;;;;;;;;;;;5.80;90.20;;;;;;5040415;28;87993;-66
2021/03/10 00:36:03;;;;;;;;;;;5.90;90.20;;;;;;5039819;28;88865;-66
2021/03/10 00:38:29;;;;;;;;;;;5.80;90.20;;;;;;5038034;28;87680;-66
2021/03/10 00:40:55;;;;;;;;;;;5.80;90.10;;;;;;5037667;27;87178;-66
2021/03/10 00:43:20;;;;;;;;;;;5.80;90.20;;;;;;5038523;28;88029;-66
2021/03/10 00:45:46;;;;;;;;;;;5.80;90.10;;;;;;5039340;28;88080;-66
2021/03/10 00:48:11;;;;;;;;;;;5.80;90.20;;;;;;5041169;27;88697;-67
2021/03/10 00:50:37;;;;;;;;;;;5.80;90.20;;;;;;5039278;28;88267;-66
2021/03/10 00:53:02;;;;;;;;;;;5.80;90.20;;;;;;5040260;27;87297;-66
2021/03/10 00:55:28;;;;;;;;;;;5.80;90.20;;;;;;5039515;28;88045;-66
2021/03/10 00:57:53;;;;;;;;;;;5.80;90.10;;;;;;5037790;28;87219;-66
2021/03/10 01:00:20;;;;;;;;;;;5.80;90.20;;;;;;5039041;28;87929;-66
2021/03/10 01:02:45;;;;;;;;;;;5.80;90.20;;;;;;5039054;27;86795;-66
2021/03/10 01:05:11;;;;;;;;;;;5.80;90.20;;;;;;5040013;28;87109;-66
2021/03/10 01:07:37;;;;;;;;;;;5.80;90.30;;;;;;5040953;27;87241;-66
2021/03/10 01:10:07;;;;;;;;;;;5.80;90.30;;;;;;5039694;28;90540;-66
2021/03/10 01:12:32;;;;;;;;;;;5.80;90.30;;;;;;5037052;27;87241;-66
2021/03/10 01:14:58;;;;;;;;;;;5.80;90.30;;;;;;5038184;27;87468;-66
2021/03/10 01:17:24;;;;;;;;;;;5.80;90.20;;;;;;5041702;27;88116;-66
2021/03/10 01:19:49;;;;;;;;;;;5.80;90.30;;;;;;5039206;28;87513;-67
2021/03/10 01:22:15;;;;;;;;;;;5.70;90.30;;;;;;5039127;28;88298;-66
2021/03/10 01:24:40;;;;;;;;;;;5.70;90.20;;;;;;5038603;28;87192;-66
2021/03/10 01:27:06;;;;;;;;;;;5.80;90.30;;;;;;5038454;28;87269;-66
2021/03/10 01:29:31;;;;;;;;;;;5.70;90.20;;;;;;5036720;28;88110;-66
2021/03/10 01:31:57;;;;;;;;;;;5.70;90.20;;;;;;5038175;28;87124;-66
2021/03/10 01:34:22;;;;;;;;;;;5.70;90.20;;;;;;5038863;28;88149;-66
2021/03/10 01:36:49;;;;;;;;;;;5.70;90.20;;;;;;5039205;28;88177;-66
2021/03/10 01:39:14;;;;;;;;;;;5.70;90.20;;;;;;5043844;28;87160;-66
2021/03/10 01:41:40;;;;;;;;;;;5.70;90.20;;;;;;5037724;27;87964;-66
2021/03/10 01:44:05;;;;;;;;;;;5.70;90.30;;;;;;5036428;28;87140;-66
2021/03/10 01:46:39;;;;;;;;;;;5.70;90.30;;;;;;5036573;28;87180;-66
2021/03/10 01:49:04;;;;;;;;;;;5.70;90.30;;;;;;5039913;28;88393;-66
2021/03/10 01:51:30;;;;;;;;;;;5.70;90.30;;;;;;5040350;28;86393;-66
2021/03/10 01:53:56;;;;;;;;;;;5.70;90.30;;;;;;5039995;28;87327;-66
2021/03/10 01:56:23;;;;;;;;;;;5.70;90.30;;;;;;5039343;28;87734;-66
2021/03/10 01:58:49;;;;;;;;;;;5.70;90.30;;;;;;5041844;27;88097;-66
2021/03/10 02:01:14;;;;;;;;;;;5.70;90.40;;;;;;5040003;28;88515;-66
2021/03/10 02:03:40;;;;;;;;;;;5.70;90.30;;;;;;5037107;28;88464;-66
2021/03/10 02:06:06;;;;;;;;;;;5.70;90.30;;;;;;5036339;28;87690;-66
2021/03/10 02:08:45;;;;;;;;;;;5.70;90.30;;;;;;5035995;28;87798;-66
2021/03/10 02:11:30;;;;;;;;;;;5.70;90.30;;;;;;5039480;28;87198;-66
2021/03/10 02:13:58;;;;;;;;;;;5.70;90.30;;;;;;5035703;27;88373;-66
2021/03/10 02:16:37;;;;;;;;;;;5.70;90.30;;;;;;5040139;28;87338;-67
2021/03/10 02:19:03;;;;;;;;;;;5.70;90.30;;;;;;5036527;28;87161;-66
2021/03/10 02:21:31;;;;;;;;;;;5.70;90.40;;;;;;5040651;28;87225;-67
2021/03/10 02:24:10;;;;;;;;;;;5.70;90.60;;;;;;5035207;28;89002;-66
2021/03/10 02:26:57;;;;;;;;;;;5.60;90.30;;;;;;5039252;27;87244;-66
2021/03/10 02:29:25;;;;;;;;;;;5.70;90.40;;;;;;5038150;28;87235;-66
2021/03/10 02:31:50;;;;;;;;;;;5.70;90.40;;;;;;5036237;28;87185;-67
2021/03/10 02:34:17;;;;;;;;;;;5.70;90.60;;;;;;5035412;28;87208;-66
2021/03/10 02:36:46;;;;;;;;;;;5.60;90.40;;;;;;5037426;28;88072;-67
2021/03/10 02:39:11;;;;;;;;;;;5.60;90.40;;;;;;5038000;27;87146;-66
2021/03/10 02:41:37;;;;;;;;;;;5.60;90.40;;;;;;5037719;27;87542;-67
2021/03/10 02:44:03;;;;;;;;;;;5.60;90.40;;;;;;5038496;28;87743;-66
2021/03/10 02:46:29;;;;;;;;;;;5.60;90.40;;;;;;5035904;27;87242;-67
2021/03/10 02:48:55;;;;;;;;;;;5.60;90.40;;;;;;5037561;28;88684;-67
2021/03/10 02:51:21;;;;;;;;;;;5.60;90.40;;;;;;5040813;28;87128;-66
2021/03/10 02:53:47;;;;;;;;;;;5.60;90.40;;;;;;5040695;27;87139;-67
2021/03/10 02:56:13;;;;;;;;;;;5.60;90.40;;;;;;5040387;27;87604;-67
2021/03/10 02:58:39;;;;;;;;;;;5.60;90.40;;;;;;5041843;27;87163;-66
2021/03/10 03:01:06;;;;;;;;;;;5.60;90.40;;;;;;5041845;27;87149;-67
2021/03/10 03:03:32;;;;;;;;;;;5.60;90.40;;;;;;5041420;28;88176;-67
2021/03/10 03:05:58;;;;;;;;;;;5.60;90.50;;;;;;5045197;27;86422;-66
2021/03/10 03:08:24;;;;;;;;;;;5.60;90.50;;;;;;5042823;28;87430;-67
2021/03/10 03:10:49;;;;;;;;;;;5.60;90.40;;;;;;5041205;28;87849;-67
2021/03/10 03:13:15;;;;;;;;;;;5.60;90.40;;;;;;5037856;28;88119;-66
2021/03/10 03:15:45;;;;;;;;;;;5.60;90.70;;;;;;5038285;27;88212;-67
2021/03/10 03:18:11;;;;;;;;;;;5.60;90.40;;;;;;5041146;27;87321;-67
2021/03/10 03:20:36;;;;;;;;;;;5.60;90.40;;;;;;5042180;28;87498;-67
2021/03/10 03:23:04;;;;;;;;;;;5.60;90.40;;;;;;5042154;27;88198;-67
2021/03/10 03:25:34;;;;;;;;;;;5.60;90.50;;;;;;5040708;27;87145;-66
2021/03/10 03:28:01;;;;;;;;;;;5.50;90.40;;;;;;5045017;27;88835;-66
2021/03/10 03:30:29;;;;;;;;;;;5.60;90.50;;;;;;5042488;27;86428;-67
2021/03/10 03:32:55;;;;;;;;;;;5.50;90.50;;;;;;5039231;27;87122;-67
2021/03/10 03:35:22;;;;;;;;;;;5.60;90.50;;;;;;5038399;28;88085;-67
2021/03/10 03:37:48;;;;;;;;;;;5.50;90.40;;;;;;5042014;27;88763;-67
2021/03/10 03:40:15;;;;;;;;;;;5.60;90.50;;;;;;5041223;28;89026;-66
2021/03/10 03:42:41;;;;;;;;;;;5.50;90.50;;;;;;5038339;28;88216;-67
2021/03/10 03:45:07;;;;;;;;;;;5.50;90.50;;;;;;5039654;27;87141;-67
2021/03/10 03:47:33;;;;;;;;;;;5.50;90.50;;;;;;5039359;27;89292;-66
2021/03/10 03:49:59;;;;;;;;;;;5.50;90.50;;;;;;5041522;28;88499;-66
2021/03/10 03:52:24;;;;;;;;;;;5.50;90.50;;;;;;5041502;28;87198;-67
2021/03/10 03:54:50;;;;;;;;;;;5.50;90.50;;;;;;5040967;28;87572;-67
2021/03/10 03:57:15;;;;;;;;;;;5.50;90.50;;;;;;5040319;28;87151;-66
2021/03/10 03:59:41;;;;;;;;;;;5.50;90.50;;;;;;5038406;27;87175;-67
2021/03/10 04:02:06;;;;;;;;;;;5.50;90.50;;;;;;5037712;28;88472;-67
2021/03/10 04:04:32;;;;;;;;;;;5.50;90.50;;;;;;5039345;27;87165;-67
2021/03/10 04:06:57;;;;;;;;;;;5.50;90.50;;;;;;5040727;28;87662;-67
2021/03/10 04:09:23;;;;;;;;;;;5.50;90.50;;;;;;5044460;28;88084;-67
2021/03/10 04:11:49;;;;;;;;;;;5.50;90.50;;;;;;5040140;28;87258;-67
2021/03/10 04:14:15;;;;;;;;;;;5.50;90.50;;;;;;5038108;28;88795;-67
2021/03/10 04:16:41;;;;;;;;;;;5.50;90.50;;;;;;5037186;27;87238;-67
2021/03/10 04:19:06;;;;;;;;;;;5.50;90.50;;;;;;5038200;28;87740;-67
2021/03/10 04:21:32;;;;;;;;;;;5.50;90.70;;;;;;5054186;27;88308;-67
2021/03/10 04:23:58;;;;;;;;;;;5.50;90.50;;;;;;5039724;28;87157;-66
2021/03/10 04:26:24;;;;;;;;;;;5.50;90.50;;;;;;5040590;28;88075;-67
2021/03/10 04:28:49;;;;;;;;;;;5.50;90.50;;;;;;5041387;27;87723;-67
2021/03/10 04:31:15;;;;;;;;;;;5.50;90.40;;;;;;5042646;27;87698;-67
2021/03/10 04:33:40;;;;;;;;;;;5.50;90.50;;;;;;5036613;27;87658;-66
2021/03/10 04:36:06;;;;;;;;;;;5.50;90.50;;;;;;5036850;27;87139;-66
2021/03/10 04:38:32;;;;;;;;;;;5.50;90.50;;;;;;5039140;27;88352;-67
2021/03/10 04:40:57;;;;;;;;;;;5.50;90.50;;;;;;5041601;27;87639;-67
2021/03/10 04:43:23;;;;;;;;;;;5.50;90.50;;;;;;5040865;28;86503;-67
2021/03/10 04:45:49;;;;;;;;;;;5.50;90.70;;;;;;5039405;28;88028;-66
2021/03/10 04:48:14;;;;;;;;;;;5.50;90.50;;;;;;5036612;27;88157;-66
2021/03/10 04:50:40;;;;;;;;;;;5.40;90.50;;;;;;5037489;28;88122;-66
2021/03/10 04:53:05;;;;;;;;;;;5.40;90.50;;;;;;5041958;27;88038;-66
2021/03/10 04:55:31;;;;;;;;;;;5.40;90.50;;;;;;5040502;27;87170;-66
2021/03/10 04:57:56;;;;;;;;;;;5.40;90.50;;;;;;5041185;28;88671;-66
2021/03/10 05:00:22;;;;;;;;;;;5.50;90.50;;;;;;5037395;27;89299;-66
2021/03/10 05:02:47;;;;;;;;;;;5.40;90.50;;;;;;5037218;28;87156;-66
2021/03/10 05:05:13;;;;;;;;;;;5.40;90.50;;;;;;5038253;28;87183;-66
2021/03/10 05:07:39;;;;;;;;;;;5.40;90.50;;;;;;5039524;27;86716;-67
2021/03/10 05:10:05;;;;;;;;;;;5.40;90.60;;;;;;5040255;27;87243;-66
2021/03/10 05:12:31;;;;;;;;;;;5.40;90.50;;;;;;5038068;28;88948;-66
2021/03/10 05:14:57;;;;;;;;;;;5.40;90.60;;;;;;5039187;28;89197;-66
2021/03/10 05:17:25;;;;;;;;;;;5.40;90.60;;;;;;5037497;28;88796;-66
2021/03/10 05:19:51;;;;;;;;;;;5.40;90.50;;;;;;5040851;27;87987;-66
2021/03/10 05:22:16;;;;;;;;;;;5.40;90.50;;;;;;5039522;27;87776;-66
2021/03/10 05:24:42;;;;;;;;;;;5.40;90.60;;;;;;5036225;28;88204;-66
2021/03/10 05:27:07;;;;;;;;;;;5.40;90.50;;;;;;5037160;28;88213;-67
2021/03/10 05:29:33;;;;;;;;;;;5.40;90.60;;;;;;5038781;28;87209;-66
2021/03/10 05:31:58;;;;;;;;;;;5.40;90.60;;;;;;5040519;28;86469;-66
2021/03/10 05:34:24;;;;;;;;;;;5.40;90.60;;;;;;5039990;28;88821;-66
2021/03/10 05:36:50;;;;;;;;;;;5.40;90.60;;;;;;5040074;27;87254;-66
2021/03/10 05:39:15;;;;;;;;;;;5.40;90.60;;;;;;5035579;27;88468;-66
2021/03/10 05:41:41;;;;;;;;;;;5.40;90.60;;;;;;5037539;28;87127;-66
2021/03/10 05:44:07;;;;;;;;;;;5.40;90.70;;;;;;5038241;27;87203;-66
2021/03/10 05:46:33;;;;;;;;;;;5.40;90.60;;;;;;5038558;27;87439;-67
2021/03/10 05:48:58;;;;;;;;;;;5.40;90.60;;;;;;5039875;28;87233;-66
2021/03/10 05:51:24;;;;;;;;;;;5.40;90.60;;;;;;5040536;28;87265;-66
2021/03/10 05:53:50;;;;;;;;;;;5.40;90.70;;;;;;5037032;28;88275;-66
2021/03/10 05:56:15;;;;;;;;;;;5.40;90.60;;;;;;5036866;28;86460;-66
2021/03/10 05:58:41;;;;;;;;;;;5.40;90.70;;;;;;5039998;28;87143;-66
2021/03/10 06:01:06;;;;;;;;;;;5.40;90.70;;;;;;5038774;28;87108;-66
2021/03/10 06:03:32;;;;;;;;;;;5.40;90.70;;;;;;5039263;27;88134;-66
2021/03/10 06:06:01;;;;;;;;;;;5.40;90.70;;;;;;5040068;28;88753;-66
2021/03/10 06:08:28;;;;;;;;;;;5.40;90.70;;;;;;5036736;27;88022;-66
2021/03/10 06:10:53;;;;;;;;;;;5.40;90.70;;;;;;5039220;27;87538;-66
2021/03/10 06:13:22;;;;;;;;;;;5.40;90.60;;;;;;5039248;27;88000;-66
2021/03/10 06:15:48;;;;;;;;;;;5.40;90.70;;;;;;5036931;28;87226;-66
2021/03/10 06:18:20;;;;;;;;;;;5.40;90.70;;;;;;5039926;28;87639;-66
2021/03/10 06:20:46;;;;;;;;;;;5.30;90.60;;;;;;5036505;27;86444;-66
2021/03/10 06:23:13;;;;;;;;;;;5.40;90.60;;;;;;5038489;27;87204;-66
2021/03/10 06:25:39;;;;;;;;;;;5.40;90.70;;;;;;5038384;28;88743;-66
2021/03/10 06:28:04;;;;;;;;;;;5.30;90.60;;;;;;5038392;28;88163;-66
2021/03/10 06:30:38;;;;;;;;;;;5.30;90.60;;;;;;5040117;28;88254;-66
2021/03/10 06:33:04;;;;;;;;;;;5.30;90.60;;;;;;5042289;27;89289;-66
2021/03/10 06:35:30;;;;;;;;;;;5.30;90.60;;;;;;5043156;27;87210;-67
2021/03/10 06:38:05;;;;;;;;;;;5.40;90.70;;;;;;5043269;27;87458;-66
2021/03/10 06:40:31;;;;;;;;;;;5.40;90.70;;;;;;5045781;27;87494;-66
2021/03/10 06:42:56;;;;;;;;;;;5.30;90.70;;;;;;5042238;27;87613;-66
2021/03/10 06:45:29;;;;;;;;;;;5.30;90.70;;;;;;5041746;27;87355;-67
2021/03/10 06:47:55;;;;;;;;;;;5.30;90.70;;;;;;5039326;27;87160;-66
2021/03/10 06:50:20;;;;;;;;;;;5.30;90.70;;;;;;5040631;27;87187;-66
2021/03/10 06:52:49;;;;;;;;;;;5.30;90.70;;;;;;5040792;28;88416;-67
2021/03/10 06:55:15;;;;;;;;;;;5.30;90.70;;;;;;5038543;27;88395;-66
2021/03/10 06:57:44;;;;;;;;;;;5.30;90.70;;;;;;5039500;28;87231;-66
2021/03/10 07:00:20;;;;;;;;;;;5.30;90.80;;;;;;5042019;27;88685;-66
2021/03/10 07:02:47;;;;;;;;;;;5.40;90.70;;;;;;5045330;28;87187;-66
2021/03/10 07:05:13;;;;;;;;;;;5.40;90.70;;;;;;5041882;27;87881;-66
2021/03/10 07:07:39;;;;;;;;;;;5.30;90.70;;;;;;5042123;27;87206;-66
2021/03/10 07:10:05;;;;;;;;;;;5.30;90.70;;;;;;5043303;28;87579;-67
2021/03/10 07:12:30;;;;;;;;;;;5.30;90.70;;;;;;5042388;27;88693;-66
2021/03/10 07:14:56;;;;;;;;;;;5.40;90.80;;;;;;5040563;28;88110;-66
2021/03/10 07:17:23;;;;;;;;;;;5.30;90.70;;;;;;5040769;27;89555;-66
2021/03/10 07:19:49;;;;;;;;;;;5.30;90.80;;;;;;5042132;28;88534;-66
2021/03/10 07:22:15;;;;;;;;;;;5.30;90.80;;;;;;5041480;27;88727;-66
2021/03/10 07:24:47;;;;;;;;;;;5.30;90.70;;;;;;5044822;28;88806;-66
2021/03/10 07:27:15;;;;;;;;;;;5.30;90.70;;;;;;5040033;28;87153;-66
2021/03/10 07:29:41;;;;;;;;;;;5.30;90.70;;;;;;5038568;28;88055;-66
2021/03/10 07:32:07;;;;;;;;;;;5.30;90.70;;;;;;5038280;27;87427;-67
2021/03/10 07:34:34;;;;;;;;;;;5.30;90.70;;;;;;5038080;27;86480;-66
2021/03/10 07:37:10;;;;;;;;;;;5.30;90.80;;;;;;5038280;27;87226;-66
2021/03/10 07:39:35;;;;;;;;;;;5.30;90.80;;;;;;5038337;27;88200;-66
2021/03/10 07:42:08;;;;;;;;;;;5.30;90.80;;;;;;5039280;28;88116;-66
2021/03/10 07:44:33;;;;;;;;;;;5.30;90.80;;;;;;5038355;27;88507;-66
2021/03/10 07:47:03;;;;;;;;;;;5.30;90.80;;;;;;5041812;28;88201;-66
2021/03/10 07:49:29;;;;;;;;;;;5.30;90.80;;;;;;5040342;27;87498;-66
2021/03/10 07:52:04;;;;;;;;;;;5.30;90.80;;;;;;5039337;27;87858;-66
2021/03/10 07:54:29;;;;;;;;;;;5.30;90.80;;;;;;5040049;27;87194;-66
2021/03/10 07:57:07;;;;;;;;;;;5.30;91.10;;;;;;5039341;28;87438;-66
2021/03/10 07:59:33;;;;;;;;;;;5.30;90.80;;;;;;5037733;28;88890;-66
2021/03/10 08:01:59;;;;;;;;;;;5.20;90.80;;;;;;5038656;28;87153;-66
2021/03/10 08:04:25;;;;;;;;;;;5.20;90.70;;;;;;5038319;27;88630;-66
2021/03/10 08:06:54;;;;;;;;;;;5.20;91.00;;;;;;5037259;28;89133;-66
2021/03/10 08:09:22;;;;;;;;;;;5.30;90.70;;;;;;5043995;27;87197;-66
2021/03/10 08:11:48;;;;;;;;;;;5.30;90.80;;;;;;5039457;28;88118;-66
2021/03/10 08:14:16;;;;;;;;;;;5.30;90.70;;;;;;5038212;27;87118;-66
2021/03/10 08:16:43;;;;;;;;;;;5.20;90.70;;;;;;5038106;28;88181;-66
2021/03/10 08:19:09;;;;;;;;;;;5.20;90.70;;;;;;5041360;27;88718;-66
2021/03/10 08:21:39;;;;;;;;;;;5.30;90.80;;;;;;5042020;28;87941;-66
2021/03/10 08:24:05;;;;;;;;;;;5.30;90.80;;;;;;5038659;27;87471;-66
2021/03/10 08:26:31;;;;;;;;;;;5.20;90.70;;;;;;5037181;28;88232;-66
2021/03/10 08:29:02;;;;;;;;;;;5.20;90.80;;;;;;5041601;27;87234;-66
2021/03/10 08:31:27;;;;;;;;;;;5.20;90.80;;;;;;5037086;27;89108;-66
2021/03/10 08:33:53;;;;;;;;;;;5.20;90.80;;;;;;5038905;28;87171;-66
2021/03/10 08:36:29;;;;;;;;;;;5.30;90.80;;;;;;5040105;28;87877;-66
2021/03/10 08:38:56;;;;;;;;;;;5.20;90.80;;;;;;5039724;27;90033;-66
2021/03/10 08:41:21;;;;;;;;;;;5.20;90.80;;;;;;5040517;28;87156;-66
2021/03/10 08:43:47;;;;;;;;;;;5.30;90.80;;;;;;5041618;28;87937;-66
2021/03/10 08:46:12;;;;;;;;;;;5.20;90.80;;;;;;5037919;28;87271;-66
2021/03/10 08:48:38;;;;;;;;;;;5.20;90.80;;;;;;5039210;28;87750;-66
2021/03/10 08:51:04;;;;;;;;;;;5.30;90.80;;;;;;5044152;28;87825;-66
2021/03/10 08:53:30;;;;;;;;;;;5.20;90.80;;;;;;5040189;28;87139;-66
2021/03/10 08:56:06;;;;;;;;;;;5.20;90.80;;;;;;5040174;27;88768;-66
2021/03/10 08:58:31;;;;;;;;;;;5.20;90.80;;;;;;5040624;28;88108;-66
2021/03/10 09:00:57;;;;;;;;;;;5.20;90.90;;;;;;5038208;27;88421;-66
2021/03/10 09:03:22;;;;;;;;;;;5.20;90.80;;;;;;5037475;28;87904;-66
2021/03/10 09:05:49;;;;;;;;;;;5.20;90.80;;;;;;5038095;28;87543;-66
2021/03/10 09:08:17;;;;;;;;;;;5.20;90.80;;;;;;5037775;27;87162;-66
2021/03/10 09:10:47;;;;;;;;;;;5.20;90.80;;;;;;5037321;28;88324;-66
2021/03/10 09:13:13;;;;;;;;;;;5.20;90.80;;;;;;5041108;27;87152;-66
2021/03/10 09:15:39;;;;;;;;;;;5.20;90.80;;;;;;5039101;28;87159;-66
2021/03/10 09:18:05;;;;;;;;;;;5.20;90.80;;;;;;5039266;27;87533;-66
2021/03/10 09:20:35;;;;;;;;;;;5.20;90.80;;;;;;5038896;28;88064;-66
2021/03/10 09:23:00;;;;;;;;;;;5.20;90.80;;;;;;5039884;28;88028;-66
2021/03/10 09:25:36;;;;;;;;;;;5.20;90.80;;;;;;5038465;27;89487;-66
2021/03/10 09:28:01;;;;;;;;;;;5.20;90.90;;;;;;5038776;27;87185;-66
2021/03/10 09:30:30;;;;;;;;;;;5.20;90.90;;;;;;5039216;28;87163;-66
2021/03/10 09:32:55;;;;;;;;;;;5.20;90.90;;;;;;5036098;27;88042;-66
2021/03/10 09:35:22;;;;;;;;;;;5.20;90.90;;;;;;5040408;28;87166;-66
2021/03/10 09:37:52;;;;;;;;;;;5.20;90.90;;;;;;5037051;28;87460;-66
2021/03/10 09:40:19;;;;;;;;;;;5.20;90.90;;;;;;5039382;27;87169;-66
2021/03/10 09:42:45;;;;;;;;;;;5.20;90.90;;;;;;5038282;27;87467;-66
2021/03/10 09:45:20;;;;;;;;;;;5.20;90.90;;;;;;5037721;28;88506;-66
2021/03/10 09:47:49;;;;;;;;;;;5.20;90.90;;;;;;5040697;28;87197;-66
2021/03/10 09:50:22;;;;;;;;;;;5.20;91.00;;;;;;5037963;27;87454;-66
2021/03/10 09:52:48;;;;;;;;;;;5.20;90.90;;;;;;5038423;27;87804;-66
2021/03/10 09:55:17;;;;;;;;;;;5.20;90.90;;;;;;5036053;28;87310;-66
2021/03/10 09:57:42;;;;;;;;;;;5.20;90.90;;;;;;5042501;28;87280;-66
2021/03/10 10:00:18;;;;;;;;;;;5.20;91.00;;;;;;5044440;28;87264;-66
2021/03/10 10:02:45;;;;;;;;;;;5.20;91.00;;;;;;5042150;27;87529;-66
2021/03/10 10:05:11;;;;;;;;;;;5.20;91.00;;;;;;5042004;28;88784;-66
2021/03/10 10:07:36;;;;;;;;;;;5.20;91.00;;;;;;5040444;28;87163;-66
2021/03/10 10:10:02;;;;;;;;;;;5.20;91.00;;;;;;5039087;28;88128;-66
2021/03/10 10:12:27;;;;;;;;;;;5.20;91.00;;;;;;5039338;27;87857;-66
2021/03/10 10:14:53;;;;;;;;;;;5.20;91.00;;;;;;5041025;28;87111;-66
2021/03/10 10:17:19;;;;;;;;;;;5.20;91.00;;;;;;5044650;28;87153;-66
2021/03/10 10:19:44;;;;;;;;;;;5.20;91.00;;;;;;5043477;27;87142;-66
2021/03/10 10:22:10;;;;;;;;;;;5.20;91.00;;;;;;5042410;27;88742;-66
2021/03/10 10:24:36;;;;;;;;;;;5.20;91.00;;;;;;5041308;27;88283;-67
2021/03/10 10:27:02;;;;;;;;;;;5.20;91.00;;;;;;5043073;27;86479;-66
2021/03/10 10:29:27;;;;;;;;;;;5.20;91.00;;;;;;5039429;27;88782;-66
2021/03/10 10:31:53;;;;;;;;;;;5.20;91.00;;;;;;5039676;28;88208;-66
2021/03/10 10:34:18;;;;;;;;;;;5.20;91.00;;;;;;5039604;28;88083;-66
2021/03/10 10:36:44;;;;;;;;;;;5.20;91.00;;;;;;5039191;28;88520;-66
2021/03/10 10:39:09;;;;;;;;;;;5.20;91.00;;;;;;5042381;28;88339;-66
2021/03/10 10:41:35;;;;;;;;;;;5.10;91.00;;;;;;5039630;28;87169;-67
2021/03/10 10:44:00;;;;;;;;;;;5.20;91.10;;;;;;5039749;28;87484;-66
2021/03/10 10:46:26;;;;;;;;;;;5.20;91.00;;;;;;5038977;27;87205;-66
2021/03/10 10:48:51;;;;;;;;;;;5.20;91.00;;;;;;5039122;27;87522;-66
2021/03/10 10:51:19;;;;;;;;;;;5.20;91.10;;;;;;5040349;27;87433;-66
2021/03/10 10:53:45;;;;;;;;;;;5.10;91.10;;;;;;5039482;27;87882;-66
2021/03/10 10:56:11;;;;;;;;;;;5.10;91.10;;;;;;5038730;28;87438;-66
2021/03/10 10:58:36;;;;;;;;;;;5.10;91.10;;;;;;5038900;28;89134;-66
2021/03/10 11:01:02;;;;;;;;;;;5.20;91.10;;;;;;5043107;28;87157;-66
2021/03/10 11:03:28;;;;;;;;;;;5.20;91.10;;;;;;5040524;27;88225;-66
2021/03/10 11:05:53;;;;;;;;;;;5.10;91.10;;;;;;5041989;28;87144;-66
2021/03/10 11:08:20;;;;;;;;;;;5.10;91.10;;;;;;5042590;27;88002;-66
2021/03/10 11:10:45;;;;;;;;;;;5.10;91.10;;;;;;5040323;27;88022;-67
2021/03/10 11:13:11;;;;;;;;;;;5.10;91.10;;;;;;5041180;28;87133;-66
2021/03/10 11:15:37;;;;;;;;;;;5.10;91.00;;;;;;5041801;27;87397;-66
2021/03/10 11:18:03;;;;;;;;;;;5.20;91.10;;;;;;5041188;27;88113;-66
2021/03/10 11:20:28;;;;;;;;;;;5.10;91.00;;;;;;5037278;27;87164;-66
2021/03/10 11:22:54;;;;;;;;;;;5.10;91.10;;;;;;5037768;28;88804;-66
2021/03/10 11:25:19;;;;;;;;;;;5.10;91.20;;;;;;5040738;28;88741;-66
2021/03/10 11:27:45;;;;;;;;;;;5.00;91.30;;;;;;5038319;28;87430;-66
2021/03/10 11:30:11;;;;;;;;;;;5.00;91.30;;;;;;5038973;28;89660;-66
2021/03/10 11:32:37;;;;;;;;;;;5.00;91.40;;;;;;5039035;27;87147;-66
2021/03/10 11:35:03;;;;;;;;;;;4.90;91.40;;;;;;5039394;28;87151;-66
2021/03/10 11:37:29;;;;;;;;;;;4.90;91.50;;;;;;5038680;27;87760;-66
2021/03/10 11:39:55;;;;;;;;;;;4.90;91.50;;;;;;5039696;27;86402;-66
2021/03/10 11:42:20;;;;;;;;;;;4.90;91.50;;;;;;5039593;27;87853;-66
2021/03/10 11:44:46;;;;;;;;;;;4.90;91.50;;;;;;5041992;27;88181;-66
2021/03/10 11:47:12;;;;;;;;;;;4.90;91.50;;;;;;5039247;28;88171;-66
2021/03/10 11:49:38;;;;;;;;;;;4.90;91.60;;;;;;5037884;27;88055;-66
2021/03/10 11:52:04;;;;;;;;;;;4.80;91.60;;;;;;5038465;28;88869;-66
2021/03/10 11:54:29;;;;;;;;;;;4.80;91.60;;;;;;5042707;28;87669;-66
2021/03/10 11:56:55;;;;;;;;;;;4.80;91.60;;;;;;5041453;28;87717;-66
2021/03/10 11:59:20;;;;;;;;;;;4.80;91.60;;;;;;5041886;28;87235;-66
2021/03/10 12:01:46;;;;;;;;;;;4.90;91.50;;;;;;5040918;28;88815;-66
2021/03/10 12:04:11;;;;;;;;;;;4.90;91.50;;;;;;5037609;28;88543;-66
2021/03/10 12:06:37;;;;;;;;;;;4.90;91.40;;;;;;5041564;28;87165;-66
2021/03/10 12:09:03;;;;;;;;;;;5.00;91.40;;;;;;5039473;27;87150;-66
2021/03/10 12:11:29;;;;;;;;;;;5.00;91.40;;;;;;5039727;28;88082;-66
2021/03/10 12:13:54;;;;;;;;;;;5.00;91.30;;;;;;5041233;28;88611;-66
2021/03/10 12:16:20;;;;;;;;;;;5.00;91.30;;;;;;5041046;28;88496;-66
2021/03/10 12:18:45;;;;;;;;;;;5.00;91.30;;;;;;5040508;28;87910;-66
2021/03/10 12:21:11;;;;;;;;;;;5.00;91.30;;;;;;5037154;27;87791;-66
2021/03/10 12:23:36;;;;;;;;;;;5.00;91.30;;;;;;5037163;28;88469;-66
2021/03/10 12:26:02;;;;;;;;;;;5.00;91.30;;;;;;5040555;27;87184;-66
2021/03/10 12:28:28;;;;;;;;;;;5.00;91.30;;;;;;5039142;28;86955;-66
2021/03/10 12:30:53;;;;;;;;;;;5.00;91.30;;;;;;5038846;27;87124;-66
2021/03/10 12:33:19;;;;;;;;;;;5.00;91.30;;;;;;5040032;28;87594;-66
2021/03/10 12:35:44;;;;;;;;;;;5.00;91.30;;;;;;5040223;28;89124;-66
2021/03/10 12:38:10;;;;;;;;;;;5.00;91.20;;;;;;5040475;27;88081;-66
2021/03/10 12:40:35;;;;;;;;;;;5.10;91.30;;;;;;5037265;28;88720;-66
2021/03/10 12:43:01;;;;;;;;;;;5.00;91.30;;;;;;5037650;28;88585;-66
2021/03/10 12:45:26;;;;;;;;;;;5.10;91.30;;;;;;5038069;28;87170;-66
2021/03/10 12:47:52;;;;;;;;;;;5.00;91.20;;;;;;5041472;27;89339;-66
2021/03/10 12:50:17;;;;;;;;;;;5.00;91.30;;;;;;5040144;28;87143;-66
2021/03/10 12:52:43;;;;;;;;;;;5.00;91.30;;;;;;5040707;28;87540;-66
2021/03/10 12:55:09;;;;;;;;;;;5.00;91.30;;;;;;5040205;28;88162;-67
2021/03/10 12:57:34;;;;;;;;;;;5.00;91.20;;;;;;5040995;28;87155;-67
2021/03/10 13:00:00;;;;;;;;;;;5.10;91.30;;;;;;5054727;27;89558;-66
2021/03/10 13:02:26;;;;;;;;;;;5.00;91.20;;;;;;5038963;28;89715;-66
2021/03/10 13:04:52;;;;;;;;;;;5.00;91.20;;;;;;5040848;27;88674;-66
2021/03/10 13:07:18;;;;;;;;;;;5.00;91.20;;;;;;5039046;28;88015;-66
2021/03/10 13:09:43;;;;;;;;;;;5.00;91.20;;;;;;5043590;27;88123;-66
2021/03/10 13:12:09;;;;;;;;;;;5.00;91.20;;;;;;5041149;28;87199;-66
2021/03/10 13:14:35;;;;;;;;;;;5.00;91.10;;;;;;5039510;28;88317;-66
2021/03/10 13:17:00;;;;;;;;;;;5.00;91.10;;;;;;5039375;28;86407;-65
2021/03/10 13:19:26;;;;;;;;;;;5.00;91.10;;;;;;5039947;28;87185;-66
2021/03/10 13:21:51;;;;;;;;;;;5.00;91.10;;;;;;5040911;28;88338;-66
2021/03/10 13:24:17;;;;;;;;;;;5.00;91.10;;;;;;5037825;27;88219;-66
2021/03/10 13:26:43;;;;;;;;;;;5.00;91.10;;;;;;5036544;27;87885;-66
2021/03/10 13:29:08;;;;;;;;;;;5.00;91.10;;;;;;5036991;27;89226;-66
2021/03/10 13:31:34;;;;;;;;;;;5.00;91.10;;;;;;5041440;27;87199;-66
2021/03/10 13:34:00;;;;;;;;;;;5.00;91.10;;;;;;5039254;28;87361;-66
2021/03/10 13:36:25;;;;;;;;;;;5.00;91.10;;;;;;5039284;28;87138;-66
2021/03/10 13:38:51;;;;;;;;;;;5.00;91.10;;;;;;5039159;28;87171;-66
2021/03/10 13:41:17;;;;;;;;;;;5.00;91.20;;;;;;5040225;28;87262;-66
2021/03/10 13:43:42;;;;;;;;;;;5.00;91.20;;;;;;5040014;28;87148;-66
2021/03/10 13:46:08;;;;;;;;;;;5.00;91.10;;;;;;5039010;28;87261;-66
2021/03/10 13:48:33;;;;;;;;;;;4.90;91.10;;;;;;5038281;27;88549;-66
2021/03/10 13:50:59;;;;;;;;;;;5.00;91.10;;;;;;5040580;28;87144;-66
2021/03/10 13:53:26;;;;;;;;;;;5.00;91.20;;;;;;5041238;27;88780;-66
2021/03/10 13:55:52;;;;;;;;;;;4.90;91.20;;;;;;5040106;27;87165;-66
2021/03/10 13:58:17;;;;;;;;;;;4.90;91.20;;;;;;5039496;27;87148;-67
2021/03/10 14:00:43;;;;;;;;;;;5.00;91.20;;;;;;5038282;27;87962;-66
2021/03/10 14:03:09;;;;;;;;;;;4.90;91.20;;;;;;5037842;27;87128;-66
2021/03/10 14:05:34;;;;;;;;;;;4.90;91.20;;;;;;5038604;28;87880;-66
2021/03/10 14:08:00;;;;;;;;;;;4.90;91.10;;;;;;5037287;27;87617;-66
2021/03/10 14:10:26;;;;;;;;;;;4.90;91.10;;;;;;5035483;28;87250;-67
2021/03/10 14:12:51;;;;;;;;;;;4.90;91.10;;;;;;5036789;27;88112;-66
2021/03/10 14:15:18;;;;;;;;;;;5.00;91.10;;;;;;5041022;28;87696;-66
2021/03/10 14:17:44;;;;;;;;;;;4.90;91.10;;;;;;5037683;27;87170;-66
2021/03/10 14:20:10;;;;;;;;;;;4.90;91.10;;;;;;5038430;28;87674;-66
2021/03/10 14:22:37;;;;;;;;;;;4.90;91.10;;;;;;5037525;28;87149;-66
2021/03/10 14:25:03;;;;;;;;;;;4.90;91.10;;;;;;5035904;27;87180;-66
2021/03/10 14:27:28;;;;;;;;;;;4.90;91.10;;;;;;5036301;27;88279;-66